sensor_id;sensor_type;location;lat;lon;timestamp;temperature;humidity
8988;DHT22;4529;51.360;12.474;2022-09-17T00:02:17;13.10;99.90
8988;DHT22;4529;51.360;12.474;2022-09-17T00:07:21;13.00;99.90
8988;DHT22;4529;51.360;12.474;2022-09-17T00:12:25;13.00;99.90
8988;DHT22;4529;51.360;12.474;2022-09-17T00:17:30;13.00;99.90
8988;DHT22;4529;51.360;12.474;2022-09-17T00:22:34;13.00;99.90
8988;DHT22;4529;51.360;12.474;2022-09-17T00:27:38;13.10;99.90
8988;DHT22;4529;51.360;12.474;2022-09-17T00:32:42;13.10;99.90
8988;DHT22;4529;51.360;12.474;2022-09-17T00:37:46;13.10;99.90
8988;DHT22;4529;51.360;12.474;2022-09-17T00:42:50;13.10;99.90
8988;DHT22;4529;51.360;12.474;2022-09-17T00:48:01;13.10;99.90
8988;DHT22;4529;51.360;12.474;2022-09-17T00:53:05;13.10;99.90
8988;DHT22;4529;51.360;12.474;2022-09-17T00:58:08;13.20;99.90
8988;DHT22;4529;51.360;12.474;2022-09-17T01:03:11;13.20;99.90
8988;DHT22;4529;51.360;12.474;2022-09-17T01:25:23;13.30;99.90
8988;DHT22;4529;51.360;12.474;2022-09-17T01:30:51;13.40;99.90
8988;DHT22;4529;51.360;12.474;2022-09-17T01:36:05;13.40;99.90
8988;DHT22;4529;51.360;12.474;2022-09-17T01:41:39;13.40;99.90
8988;DHT22;4529;51.360;12.474;2022-09-17T01:46:52;13.40;99.90
8988;DHT22;4529;51.360;12.474;2022-09-17T01:51:54;13.40;99.90
8988;DHT22;4529;51.360;12.474;2022-09-17T01:57:03;13.40;99.90
8988;DHT22;4529;51.360;12.474;2022-09-17T02:02:14;13.40;99.90
8988;DHT22;4529;51.360;12.474;2022-09-17T02:07:17;13.40;99.90
8988;DHT22;4529;51.360;12.474;2022-09-17T02:12:21;13.40;99.90
8988;DHT22;4529;51.360;12.474;2022-09-17T02:17:42;13.40;99.90
8988;DHT22;4529;51.360;12.474;2022-09-17T02:22:58;13.40;99.90
8988;DHT22;4529;51.360;12.474;2022-09-17T02:28:16;13.40;99.90
8988;DHT22;4529;51.360;12.474;2022-09-17T02:33:18;13.40;99.90
8988;DHT22;4529;51.360;12.474;2022-09-17T02:38:25;13.40;99.90
8988;DHT22;4529;51.360;12.474;2022-09-17T02:43:55;13.30;99.90
8988;DHT22;4529;51.360;12.474;2022-09-17T02:49:36;13.30;99.90
8988;DHT22;4529;51.360;12.474;2022-09-17T02:55:08;13.20;99.90
8988;DHT22;4529;51.360;12.474;2022-09-17T03:00:17;13.20;99.90
8988;DHT22;4529;51.360;12.474;2022-09-17T03:05:20;13.20;99.90
8988;DHT22;4529;51.360;12.474;2022-09-17T03:10:24;13.00;99.90
8988;DHT22;4529;51.360;12.474;2022-09-17T03:15:28;12.90;99.90
8988;DHT22;4529;51.360;12.474;2022-09-17T03:20:32;12.90;99.90
8988;DHT22;4529;51.360;12.474;2022-09-17T03:25:36;12.80;99.90
8988;DHT22;4529;51.360;12.474;2022-09-17T03:30:44;12.70;99.90
8988;DHT22;4529;51.360;12.474;2022-09-17T03:35:45;12.70;99.90
8988;DHT22;4529;51.360;12.474;2022-09-17T03:41:02;12.60;99.90
8988;DHT22;4529;51.360;12.474;2022-09-17T03:46:04;12.60;99.90
8988;DHT22;4529;51.360;12.474;2022-09-17T03:51:08;12.60;99.90
8988;DHT22;4529;51.360;12.474;2022-09-17T03:56:11;12.60;99.90
8988;DHT22;4529;51.360;12.474;2022-09-17T04:01:15;12.50;99.90
8988;DHT22;4529;51.360;12.474;2022-09-17T04:06:20;12.50;99.90
8988;DHT22;4529;51.360;12.474;2022-09-17T04:11:24;12.40;99.90
8988;DHT22;4529;51.360;12.474;2022-09-17T04:16:27;12.40;99.90
8988;DHT22;4529;51.360;12.474;2022-09-17T04:21:31;12.40;99.90
8988;DHT22;4529;51.360;12.474;2022-09-17T04:26:34;12.30;99.90
8988;DHT22;4529;51.360;12.474;2022-09-17T04:31:38;12.40;99.90
8988;DHT22;4529;51.360;12.474;2022-09-17T04:36:41;12.40;99.90
8988;DHT22;4529;51.360;12.474;2022-09-17T04:41:45;12.40;99.90
8988;DHT22;4529;51.360;12.474;2022-09-17T04:46:48;12.40;99.90
8988;DHT22;4529;51.360;12.474;2022-09-17T04:51:51;12.40;99.90
8988;DHT22;4529;51.360;12.474;2022-09-17T04:56:55;12.30;99.90
8988;DHT22;4529;51.360;12.474;2022-09-17T05:01:58;12.30;99.90
8988;DHT22;4529;51.360;12.474;2022-09-17T05:07:02;12.30;99.90
8988;DHT22;4529;51.360;12.474;2022-09-17T05:12:05;12.40;99.90
8988;DHT22;4529;51.360;12.474;2022-09-17T05:17:09;12.40;99.90
8988;DHT22;4529;51.360;12.474;2022-09-17T05:22:12;12.40;99.90
8988;DHT22;4529;51.360;12.474;2022-09-17T05:27:16;12.40;99.90
8988;DHT22;4529;51.360;12.474;2022-09-17T05:32:19;12.50;99.90
8988;DHT22;4529;51.360;12.474;2022-09-17T05:37:23;12.40;99.90
8988;DHT22;4529;51.360;12.474;2022-09-17T05:42:26;12.50;99.90
8988;DHT22;4529;51.360;12.474;2022-09-17T05:47:30;12.50;99.90
8988;DHT22;4529;51.360;12.474;2022-09-17T05:52:33;12.60;99.90
8988;DHT22;4529;51.360;12.474;2022-09-17T05:57:36;12.60;99.90
8988;DHT22;4529;51.360;12.474;2022-09-17T06:02:40;12.70;99.90
8988;DHT22;4529;51.360;12.474;2022-09-17T06:07:43;12.70;99.90
8988;DHT22;4529;51.360;12.474;2022-09-17T06:12:47;12.70;99.90
8988;DHT22;4529;51.360;12.474;2022-09-17T06:17:50;12.70;99.90
8988;DHT22;4529;51.360;12.474;2022-09-17T06:22:57;12.80;99.90
8988;DHT22;4529;51.360;12.474;2022-09-17T06:28:04;12.80;99.90
8988;DHT22;4529;51.360;12.474;2022-09-17T06:33:07;12.80;99.90
8988;DHT22;4529;51.360;12.474;2022-09-17T06:38:11;12.90;99.90
8988;DHT22;4529;51.360;12.474;2022-09-17T06:43:14;12.90;99.90
8988;DHT22;4529;51.360;12.474;2022-09-17T06:48:18;12.90;99.90
8988;DHT22;4529;51.360;12.474;2022-09-17T06:53:22;13.00;99.90
8988;DHT22;4529;51.360;12.474;2022-09-17T06:58:25;13.10;99.90
8988;DHT22;4529;51.360;12.474;2022-09-17T07:03:29;13.20;99.90
8988;DHT22;4529;51.360;12.474;2022-09-17T07:08:32;13.20;99.90
8988;DHT22;4529;51.360;12.474;2022-09-17T07:13:35;13.30;99.90
8988;DHT22;4529;51.360;12.474;2022-09-17T07:18:39;13.40;99.90
8988;DHT22;4529;51.360;12.474;2022-09-17T07:23:43;13.50;99.90
8988;DHT22;4529;51.360;12.474;2022-09-17T07:28:48;13.60;99.90
8988;DHT22;4529;51.360;12.474;2022-09-17T07:33:52;13.70;99.90
8988;DHT22;4529;51.360;12.474;2022-09-17T07:38:56;14.00;99.90
8988;DHT22;4529;51.360;12.474;2022-09-17T07:44:00;14.20;99.90
8988;DHT22;4529;51.360;12.474;2022-09-17T07:49:04;14.20;99.90
8988;DHT22;4529;51.360;12.474;2022-09-17T07:54:08;14.20;99.90
8988;DHT22;4529;51.360;12.474;2022-09-17T07:59:11;14.20;99.90
8988;DHT22;4529;51.360;12.474;2022-09-17T08:04:15;14.30;99.90
8988;DHT22;4529;51.360;12.474;2022-09-17T08:09:19;14.80;99.90
8988;DHT22;4529;51.360;12.474;2022-09-17T08:14:22;14.70;99.90
8988;DHT22;4529;51.360;12.474;2022-09-17T08:19:26;15.00;99.90
8988;DHT22;4529;51.360;12.474;2022-09-17T08:24:29;14.70;99.90
8988;DHT22;4529;51.360;12.474;2022-09-17T08:29:33;14.70;99.90
8988;DHT22;4529;51.360;12.474;2022-09-17T08:34:36;14.50;99.90
8988;DHT22;4529;51.360;12.474;2022-09-17T08:39:45;14.50;99.90
8988;DHT22;4529;51.360;12.474;2022-09-17T08:44:48;14.40;99.90
8988;DHT22;4529;51.360;12.474;2022-09-17T08:49:59;14.10;99.90
8988;DHT22;4529;51.360;12.474;2022-09-17T08:55:20;14.10;99.90
8988;DHT22;4529;51.360;12.474;2022-09-17T09:00:20;14.20;99.90
8988;DHT22;4529;51.360;12.474;2022-09-17T09:05:47;14.30;99.90
8988;DHT22;4529;51.360;12.474;2022-09-17T09:10:54;14.40;99.90
8988;DHT22;4529;51.360;12.474;2022-09-17T09:16:05;14.30;99.90
8988;DHT22;4529;51.360;12.474;2022-09-17T09:21:27;14.40;99.90
8988;DHT22;4529;51.360;12.474;2022-09-17T09:26:46;14.60;99.90
8988;DHT22;4529;51.360;12.474;2022-09-17T09:32:23;14.50;99.90
8988;DHT22;4529;51.360;12.474;2022-09-17T09:37:31;14.50;99.90
8988;DHT22;4529;51.360;12.474;2022-09-17T09:42:34;14.60;99.90
8988;DHT22;4529;51.360;12.474;2022-09-17T09:58:38;15.20;99.90
8988;DHT22;4529;51.360;12.474;2022-09-17T10:03:42;15.10;99.90
8988;DHT22;4529;51.360;12.474;2022-09-17T10:14:23;15.20;99.90
8988;DHT22;4529;51.360;12.474;2022-09-17T10:19:25;15.40;99.90
8988;DHT22;4529;51.360;12.474;2022-09-17T10:24:29;15.50;99.90
8988;DHT22;4529;51.360;12.474;2022-09-17T10:29:32;15.40;99.90
8988;DHT22;4529;51.360;12.474;2022-09-17T10:34:36;15.50;99.90
8988;DHT22;4529;51.360;12.474;2022-09-17T10:39:39;15.60;99.90
8988;DHT22;4529;51.360;12.474;2022-09-17T10:44:55;15.50;99.90
8988;DHT22;4529;51.360;12.474;2022-09-17T10:50:01;15.40;99.90
8988;DHT22;4529;51.360;12.474;2022-09-17T11:01:00;15.90;99.90
8988;DHT22;4529;51.360;12.474;2022-09-17T11:17:31;15.70;99.90
8988;DHT22;4529;51.360;12.474;2022-09-17T11:22:53;15.60;99.90
8988;DHT22;4529;51.360;12.474;2022-09-17T11:28:17;15.40;99.90
8988;DHT22;4529;51.360;12.474;2022-09-17T11:33:56;15.00;99.90
8988;DHT22;4529;51.360;12.474;2022-09-17T11:38:49;15.00;99.90
8988;DHT22;4529;51.360;12.474;2022-09-17T11:44:25;14.50;99.90
8988;DHT22;4529;51.360;12.474;2022-09-17T11:49:41;14.50;99.90
8988;DHT22;4529;51.360;12.474;2022-09-17T11:55:02;14.60;99.90
8988;DHT22;4529;51.360;12.474;2022-09-17T12:00:12;15.00;99.90
8988;DHT22;4529;51.360;12.474;2022-09-17T12:05:25;15.30;99.90
8988;DHT22;4529;51.360;12.474;2022-09-17T12:10:46;15.50;99.90
8988;DHT22;4529;51.360;12.474;2022-09-17T12:15:47;15.80;99.90
8988;DHT22;4529;51.360;12.474;2022-09-17T12:20:51;15.70;99.90
8988;DHT22;4529;51.360;12.474;2022-09-17T12:25:58;15.90;99.90
8988;DHT22;4529;51.360;12.474;2022-09-17T12:31:04;16.20;99.90
8988;DHT22;4529;51.360;12.474;2022-09-17T12:36:41;16.60;99.90
8988;DHT22;4529;51.360;12.474;2022-09-17T12:42:07;16.70;99.90
8988;DHT22;4529;51.360;12.474;2022-09-17T12:58:33;17.20;99.90
8988;DHT22;4529;51.360;12.474;2022-09-17T13:03:44;17.20;99.90
8988;DHT22;4529;51.360;12.474;2022-09-17T13:08:57;17.50;99.90
8988;DHT22;4529;51.360;12.474;2022-09-17T13:14:14;17.50;99.90
8988;DHT22;4529;51.360;12.474;2022-09-17T13:19:35;17.40;99.90
8988;DHT22;4529;51.360;12.474;2022-09-17T13:24:37;17.40;99.90
8988;DHT22;4529;51.360;12.474;2022-09-17T13:34:47;16.10;99.90
8988;DHT22;4529;51.360;12.474;2022-09-17T13:39:50;15.80;99.90
8988;DHT22;4529;51.360;12.474;2022-09-17T13:45:08;15.80;99.90
8988;DHT22;4529;51.360;12.474;2022-09-17T13:50:11;15.90;99.90
8988;DHT22;4529;51.360;12.474;2022-09-17T13:55:36;15.80;99.90
8988;DHT22;4529;51.360;12.474;2022-09-17T14:00:58;15.50;99.90
8988;DHT22;4529;51.360;12.474;2022-09-17T14:21:33;15.10;99.90
8988;DHT22;4529;51.360;12.474;2022-09-17T14:26:48;15.40;99.90
8988;DHT22;4529;51.360;12.474;2022-09-17T14:31:48;15.60;99.90
8988;DHT22;4529;51.360;12.474;2022-09-17T14:36:52;15.90;99.90
8988;DHT22;4529;51.360;12.474;2022-09-17T14:41:56;15.90;99.90
8988;DHT22;4529;51.360;12.474;2022-09-17T14:47:07;16.00;99.90
8988;DHT22;4529;51.360;12.474;2022-09-17T14:52:26;16.00;99.90
8988;DHT22;4529;51.360;12.474;2022-09-17T14:57:28;15.30;99.90
8988;DHT22;4529;51.360;12.474;2022-09-17T15:02:38;15.40;99.90
8988;DHT22;4529;51.360;12.474;2022-09-17T15:07:42;15.70;99.90
8988;DHT22;4529;51.360;12.474;2022-09-17T15:12:46;15.90;99.90
8988;DHT22;4529;51.360;12.474;2022-09-17T15:17:50;15.90;99.90
8988;DHT22;4529;51.360;12.474;2022-09-17T15:23:08;16.00;99.90
8988;DHT22;4529;51.360;12.474;2022-09-17T15:28:22;16.00;99.90
8988;DHT22;4529;51.360;12.474;2022-09-17T15:33:19;15.90;99.90
8988;DHT22;4529;51.360;12.474;2022-09-17T15:38:28;15.80;99.90
8988;DHT22;4529;51.360;12.474;2022-09-17T15:43:32;15.70;99.90
8988;DHT22;4529;51.360;12.474;2022-09-17T15:48:37;15.70;99.90
8988;DHT22;4529;51.360;12.474;2022-09-17T15:53:49;15.70;99.90
8988;DHT22;4529;51.360;12.474;2022-09-17T16:09:48;15.60;99.90
8988;DHT22;4529;51.360;12.474;2022-09-17T16:14:52;15.50;99.90
8988;DHT22;4529;51.360;12.474;2022-09-17T16:19:55;15.40;99.90
8988;DHT22;4529;51.360;12.474;2022-09-17T16:24:58;15.20;99.90
8988;DHT22;4529;51.360;12.474;2022-09-17T16:30:05;15.10;99.90
8988;DHT22;4529;51.360;12.474;2022-09-17T16:35:10;15.10;99.90
8988;DHT22;4529;51.360;12.474;2022-09-17T16:40:11;15.00;99.90
8988;DHT22;4529;51.360;12.474;2022-09-17T16:45:15;14.90;99.90
8988;DHT22;4529;51.360;12.474;2022-09-17T16:50:18;14.80;99.90
8988;DHT22;4529;51.360;12.474;2022-09-17T16:55:21;14.80;99.90
8988;DHT22;4529;51.360;12.474;2022-09-17T17:00:25;14.20;99.90
8988;DHT22;4529;51.360;12.474;2022-09-17T17:05:29;14.20;99.90
8988;DHT22;4529;51.360;12.474;2022-09-17T17:10:33;13.60;99.90
8988;DHT22;4529;51.360;12.474;2022-09-17T17:15:38;13.30;99.90
8988;DHT22;4529;51.360;12.474;2022-09-17T17:20:40;12.90;99.90
8988;DHT22;4529;51.360;12.474;2022-09-17T17:25:43;12.90;99.90
8988;DHT22;4529;51.360;12.474;2022-09-17T17:30:47;12.70;99.90
8988;DHT22;4529;51.360;12.474;2022-09-17T17:35:51;12.50;99.90
8988;DHT22;4529;51.360;12.474;2022-09-17T17:41:02;12.50;99.90
8988;DHT22;4529;51.360;12.474;2022-09-17T17:46:08;12.40;99.90
8988;DHT22;4529;51.360;12.474;2022-09-17T17:51:09;12.40;99.90
8988;DHT22;4529;51.360;12.474;2022-09-17T17:56:13;12.40;99.90
8988;DHT22;4529;51.360;12.474;2022-09-17T18:01:23;12.30;99.90
8988;DHT22;4529;51.360;12.474;2022-09-17T18:06:24;12.30;99.90
8988;DHT22;4529;51.360;12.474;2022-09-17T18:11:27;12.30;99.90
8988;DHT22;4529;51.360;12.474;2022-09-17T18:16:31;12.30;99.90
8988;DHT22;4529;51.360;12.474;2022-09-17T18:21:35;12.20;99.90
8988;DHT22;4529;51.360;12.474;2022-09-17T18:26:38;12.20;99.90
8988;DHT22;4529;51.360;12.474;2022-09-17T18:31:42;12.10;99.90
8988;DHT22;4529;51.360;12.474;2022-09-17T18:36:47;12.00;99.90
8988;DHT22;4529;51.360;12.474;2022-09-17T18:41:51;12.00;99.90
8988;DHT22;4529;51.360;12.474;2022-09-17T18:46:55;12.00;99.90
8988;DHT22;4529;51.360;12.474;2022-09-17T18:51:59;12.00;99.90
8988;DHT22;4529;51.360;12.474;2022-09-17T18:57:03;12.30;99.90
8988;DHT22;4529;51.360;12.474;2022-09-17T19:02:09;12.60;99.90
8988;DHT22;4529;51.360;12.474;2022-09-17T19:07:11;12.60;99.90
8988;DHT22;4529;51.360;12.474;2022-09-17T19:12:14;12.80;99.90
8988;DHT22;4529;51.360;12.474;2022-09-17T19:17:18;13.10;99.90
8988;DHT22;4529;51.360;12.474;2022-09-17T19:22:22;13.10;99.90
8988;DHT22;4529;51.360;12.474;2022-09-17T19:27:28;13.10;99.90
8988;DHT22;4529;51.360;12.474;2022-09-17T19:32:31;13.10;99.90
8988;DHT22;4529;51.360;12.474;2022-09-17T19:37:35;12.80;99.90
8988;DHT22;4529;51.360;12.474;2022-09-17T19:42:39;12.20;99.90
8988;DHT22;4529;51.360;12.474;2022-09-17T19:47:43;12.00;99.90
8988;DHT22;4529;51.360;12.474;2022-09-17T19:52:47;11.90;99.90
8988;DHT22;4529;51.360;12.474;2022-09-17T19:57:51;11.90;99.90
8988;DHT22;4529;51.360;12.474;2022-09-17T20:02:55;11.80;99.90
8988;DHT22;4529;51.360;12.474;2022-09-17T20:08:00;11.70;99.90
8988;DHT22;4529;51.360;12.474;2022-09-17T20:13:04;11.70;99.90
8988;DHT22;4529;51.360;12.474;2022-09-17T20:18:07;11.70;99.90
8988;DHT22;4529;51.360;12.474;2022-09-17T20:23:11;11.70;99.90
8988;DHT22;4529;51.360;12.474;2022-09-17T20:28:14;11.60;99.90
8988;DHT22;4529;51.360;12.474;2022-09-17T20:33:18;11.60;99.90
8988;DHT22;4529;51.360;12.474;2022-09-17T20:38:21;11.60;99.90
8988;DHT22;4529;51.360;12.474;2022-09-17T20:43:25;11.50;99.90
8988;DHT22;4529;51.360;12.474;2022-09-17T20:48:31;11.50;99.90
8988;DHT22;4529;51.360;12.474;2022-09-17T20:53:35;11.50;99.90
8988;DHT22;4529;51.360;12.474;2022-09-17T20:58:40;11.40;99.90
8988;DHT22;4529;51.360;12.474;2022-09-17T21:03:42;11.30;99.90
8988;DHT22;4529;51.360;12.474;2022-09-17T21:08:46;11.30;99.90
8988;DHT22;4529;51.360;12.474;2022-09-17T21:13:49;11.20;99.90
8988;DHT22;4529;51.360;12.474;2022-09-17T21:18:56;11.30;99.90
8988;DHT22;4529;51.360;12.474;2022-09-17T21:24:04;11.70;99.90
8988;DHT22;4529;51.360;12.474;2022-09-17T21:29:06;11.70;99.90
8988;DHT22;4529;51.360;12.474;2022-09-17T21:34:11;11.90;99.90
8988;DHT22;4529;51.360;12.474;2022-09-17T21:39:14;12.10;99.90
8988;DHT22;4529;51.360;12.474;2022-09-17T21:44:17;12.20;99.90
8988;DHT22;4529;51.360;12.474;2022-09-17T21:49:20;12.30;99.90
8988;DHT22;4529;51.360;12.474;2022-09-17T21:54:23;12.40;99.90
8988;DHT22;4529;51.360;12.474;2022-09-17T21:59:28;12.50;99.90
8988;DHT22;4529;51.360;12.474;2022-09-17T22:04:32;12.50;99.90
8988;DHT22;4529;51.360;12.474;2022-09-17T22:09:36;12.60;99.90
8988;DHT22;4529;51.360;12.474;2022-09-17T22:14:40;12.60;99.90
8988;DHT22;4529;51.360;12.474;2022-09-17T22:19:44;12.70;99.90
8988;DHT22;4529;51.360;12.474;2022-09-17T22:24:48;12.60;99.90
8988;DHT22;4529;51.360;12.474;2022-09-17T22:29:52;12.70;99.90
8988;DHT22;4529;51.360;12.474;2022-09-17T22:34:57;12.70;99.90
8988;DHT22;4529;51.360;12.474;2022-09-17T22:40:00;12.70;99.90
8988;DHT22;4529;51.360;12.474;2022-09-17T22:45:04;12.70;99.90
8988;DHT22;4529;51.360;12.474;2022-09-17T22:50:08;12.70;99.90
8988;DHT22;4529;51.360;12.474;2022-09-17T22:55:12;12.70;99.90
8988;DHT22;4529;51.360;12.474;2022-09-17T23:00:16;12.70;99.90
8988;DHT22;4529;51.360;12.474;2022-09-17T23:05:20;12.80;99.90
8988;DHT22;4529;51.360;12.474;2022-09-17T23:10:23;12.80;99.90
8988;DHT22;4529;51.360;12.474;2022-09-17T23:15:30;12.80;99.90
8988;DHT22;4529;51.360;12.474;2022-09-17T23:20:32;12.80;99.90
8988;DHT22;4529;51.360;12.474;2022-09-17T23:25:35;12.80;99.90
8988;DHT22;4529;51.360;12.474;2022-09-17T23:30:39;12.80;99.90
8988;DHT22;4529;51.360;12.474;2022-09-17T23:35:43;12.80;99.90
8988;DHT22;4529;51.360;12.474;2022-09-17T23:40:46;12.90;99.90
8988;DHT22;4529;51.360;12.474;2022-09-17T23:45:55;12.90;99.90
8988;DHT22;4529;51.360;12.474;2022-09-17T23:50:59;12.90;99.90
8988;DHT22;4529;51.360;12.474;2022-09-17T23:56:02;12.90;99.90
